Time;durP1;ratioP1;P1;durP2;ratioP2;P2;SDS_P1;SDS_P2;PMS_P1;PMS_P2;Temp;Humidity;BMP_temperature;BMP_pressure;BME280_temperature;BME280_humidity;BME280_pressure;Samples;Min_cycle;Max_cycle;Signal;HPM_P1;HPM_P2
2022/11/06 00:04:50;;;;;;;11.75;6.45;;;;;;;7.82;68.76;100488.34;10114789;29;20049;-77
2022/11/06 00:09:52;;;;;;;8.30;6.55;;;;;;;7.97;68.11;100499.81;10118295;29;20124;-77
2022/11/06 00:14:55;;;;;;;9.10;6.38;;;;;;;7.71;68.49;100482.88;10114809;29;20119;-77
2022/11/06 00:19:59;;;;;;;7.63;5.75;;;;;;;7.77;68.63;100476.25;10121804;29;20052;-77
2022/11/06 00:25:02;;;;;;;9.63;5.50;;;;;;;7.67;68.95;100467.97;10099460;29;20425;-77
2022/11/06 00:30:07;;;;;;;9.57;7.03;;;;;;;7.66;69.04;100467.13;10121665;29;20049;-77
2022/11/06 00:35:11;;;;;;;11.23;6.30;;;;;;;7.72;68.73;100460.50;10113159;29;20041;-77
2022/11/06 00:40:14;;;;;;;12.82;6.05;;;;;;;7.71;69.00;100456.97;10119201;29;20052;-77
2022/11/06 00:45:17;;;;;;;6.95;4.93;;;;;;;7.64;69.17;100449.47;10115765;29;20420;-77
2022/11/06 00:50:25;;;;;;;11.80;5.55;;;;;;;7.82;68.87;100460.75;10104089;29;20131;-77
2022/11/06 00:55:28;;;;;;;10.35;6.90;;;;;;;7.67;69.25;100465.31;10127525;29;20049;-77
2022/11/06 01:00:30;;;;;;;12.77;5.93;;;;;;;7.68;69.18;100469.72;10113694;29;20045;-77
2022/11/06 01:05:35;;;;;;;10.80;6.60;;;;;;;7.78;68.76;100475.28;10098847;29;20060;-77
2022/11/06 01:10:37;;;;;;;7.93;6.10;;;;;;;7.71;69.25;100464.16;10105138;29;20072;-77
2022/11/06 01:15:40;;;;;;;9.93;6.00;;;;;;;7.66;69.39;100467.13;10121281;29;20037;-77
2022/11/06 01:20:44;;;;;;;;;;;;;;;7.79;69.12;100482.31;10118754;29;20127;-77
2022/11/06 01:25:56;;;;;;;8.02;5.90;;;;;;;7.81;68.89;100469.72;10104056;29;20374;-77
2022/11/06 01:31:02;;;;;;;11.60;6.35;;;;;;;7.71;69.13;100477.53;10124340;29;20045;-77
2022/11/06 01:36:09;;;;;;;8.93;4.80;;;;;;;7.58;69.77;100453.41;10122200;29;20120;-77
2022/11/06 01:41:13;;;;;;;11.27;6.25;;;;;;;7.40;70.63;100460.84;10117495;29;20136;-77
2022/11/06 01:46:17;;;;;;;8.35;5.22;;;;;;;7.50;70.03;100440.56;10125708;29;20127;-77
2022/11/06 01:51:22;;;;;;;10.45;6.57;;;;;;;7.53;70.25;100444.00;10113399;29;20141;-78
2022/11/06 01:56:25;;;;;;;6.82;5.65;;;;;;;7.44;70.60;100448.16;10097771;29;20041;-78
2022/11/06 02:01:28;;;;;;;10.48;6.43;;;;;;;7.73;69.67;100449.72;10103433;29;20056;-78
2022/11/06 02:06:33;;;;;;;15.40;6.20;;;;;;;7.45;70.49;100432.00;10114835;29;20037;-77
2022/11/06 02:11:36;;;;;;;11.40;6.50;;;;;;;7.64;70.07;100409.38;10097493;29;20043;-76
2022/11/06 02:16:46;;;;;;;8.63;4.78;;;;;;;7.41;70.40;100429.66;10111779;29;20132;-77
2022/11/06 02:22:10;;;;;;;12.38;6.47;;;;;;;7.52;70.23;100423.59;10125998;29;20119;-77
2022/11/06 02:27:17;;;;;;;20.67;5.90;;;;;;;7.57;70.35;100416.06;10095452;29;20049;-77
2022/11/06 02:32:27;;;;;;;13.57;5.60;;;;;;;7.66;69.77;100402.09;10114207;29;20044;-77
2022/11/06 02:37:35;;;;;;;10.60;5.68;;;;;;;7.40;70.86;100396.69;10095103;29;20447;-78
2022/11/06 02:42:43;;;;;;;14.07;7.00;;;;;;;7.54;70.07;100390.41;10114536;29;20075;-77
2022/11/06 02:47:49;;;;;;;12.18;6.15;;;;;;;7.50;70.16;100380.91;10094756;29;20074;-77
2022/11/06 02:52:56;;;;;;;10.55;5.35;;;;;;;7.38;70.59;100395.13;10122711;29;20379;-77
2022/11/06 02:58:05;;;;;;;11.60;5.25;;;;;;;7.50;69.82;100380.91;10096085;29;20188;-77
2022/11/06 03:03:16;;;;;;;18.35;5.40;;;;;;;7.44;69.86;100390.19;10107436;29;20059;-77
2022/11/06 03:08:24;;;;;;;12.23;4.78;;;;;;;7.14;70.75;100387.78;10112662;29;20663;-77
2022/11/06 03:13:41;;;;;;;9.75;4.70;;;;;;;7.30;70.20;100376.91;10109470;29;20048;-77
2022/11/06 03:18:54;;;;;;;8.68;4.60;;;;;;;7.20;70.30;100384.69;10105630;29;20128;-77
2022/11/06 03:24:04;;;;;;;6.80;4.70;;;;;;;6.98;70.85;100397.75;10101835;29;20120;-77
2022/11/06 03:29:12;;;;;;;8.27;4.72;;;;;;;7.20;70.19;100370.47;10119199;29;20499;-77
2022/11/06 03:34:23;;;;;;;7.10;4.20;;;;;;;7.01;70.53;100358.34;10114708;29;20466;-77
2022/11/06 03:39:30;;;;;;;8.20;3.97;;;;;;;7.15;70.55;100344.06;10093112;29;20503;-77
2022/11/06 03:44:40;;;;;;;7.55;3.78;;;;;;;7.09;70.53;100359.66;10120541;23;20049;-77
2022/11/06 03:49:48;;;;;;;9.50;3.67;;;;;;;6.98;71.12;100365.72;10099013;29;20059;-77
2022/11/06 03:54:56;;;;;;;8.80;4.05;;;;;;;6.92;71.40;100372.31;10108103;29;20045;-77
2022/11/06 04:00:04;;;;;;;7.10;3.90;;;;;;;6.65;72.09;100366.06;10091876;29;20087;-77
2022/11/06 04:05:17;;;;;;;6.93;4.07;;;;;;;6.95;71.36;100365.91;10108193;29;20089;-77
2022/11/06 04:15:48;;;;;;;5.45;4.22;;;;;;;6.80;71.55;100373.94;10121132;29;20041;-77
2022/11/06 04:26:38;;;;;;;6.00;2.92;;;;;;;6.73;71.99;100367.28;10129331;29;20120;-76
2022/11/06 04:31:52;;;;;;;6.93;3.72;;;;;;;6.85;71.62;100355.78;10122701;29;20052;-76
2022/11/06 04:37:05;;;;;;;6.25;3.72;;;;;;;6.92;71.10;100355.44;10099738;29;20033;-76
2022/11/06 04:42:15;;;;;;;8.35;3.42;;;;;;;6.95;70.93;100355.22;10125679;29;20124;-76
2022/11/06 04:47:22;;;;;;;5.10;3.35;;;;;;;7.19;70.15;100350.91;10103287;29;20081;-77
2022/11/06 04:52:28;;;;;;;6.45;3.33;;;;;;;7.14;69.94;100345.03;10100963;29;20387;-76
2022/11/06 04:57:31;;;;;;;6.43;3.50;;;;;;;7.22;70.15;100355.19;10110369;29;20402;-76
2022/11/06 05:02:35;;;;;;;6.75;3.15;;;;;;;7.00;70.44;100347.78;10117330;29;20060;-76
2022/11/06 05:07:38;;;;;;;4.93;3.17;;;;;;;6.99;70.70;100346.91;10118829;29;20551;-77
2022/11/06 05:12:41;;;;;;;9.50;3.53;;;;;;;6.88;71.16;100346.75;10109156;29;20485;-76
2022/11/06 05:17:45;;;;;;;5.35;2.95;;;;;;;6.87;71.35;100349.50;10103130;29;20080;-76
2022/11/06 05:23:00;;;;;;;6.00;3.25;;;;;;;6.99;70.87;100341.59;10098839;29;20080;-76
2022/11/06 05:28:05;;;;;;;7.72;3.30;;;;;;;6.84;71.37;100343.41;10120575;29;20478;-76
2022/11/06 05:33:10;;;;;;;7.30;3.53;;;;;;;6.94;70.93;100329.47;10133920;29;20052;-76
2022/11/06 05:38:13;;;;;;;7.03;3.30;;;;;;;6.74;71.68;100328.94;10122701;29;20044;-76
2022/11/06 05:43:16;;;;;;;7.15;3.00;;;;;;;6.87;70.86;100317.47;10125014;29;20056;-77
2022/11/06 05:48:20;;;;;;;8.10;2.85;;;;;;;7.02;70.66;100311.13;10133926;29;20131;-76
2022/11/06 05:53:23;;;;;;;6.55;2.80;;;;;;;6.87;71.07;100314.78;10116803;29;20057;-76
2022/11/06 05:58:26;;;;;;;7.88;3.00;;;;;;;6.82;71.29;100309.75;10110991;29;20097;-75
2022/11/06 06:03:30;;;;;;;10.07;3.10;;;;;;;6.73;71.76;100308.56;10103580;29;20128;-78
2022/11/06 06:08:33;;;;;;;6.03;3.03;;;;;;;6.73;71.69;100305.03;10121692;29;20044;-75
2022/11/06 06:13:36;;;;;;;8.43;3.03;;;;;;;6.69;72.16;100303.50;10117218;29;20048;-77
2022/11/06 06:18:40;;;;;;;3.47;2.53;;;;;;;6.79;71.62;100302.81;10124003;29;20077;-77
2022/11/06 06:23:43;;;;;;;7.15;2.70;;;;;;;6.59;72.55;100296.13;10123861;29;20049;-77
2022/11/06 06:28:47;;;;;;;;;;;;;;;6.67;72.04;100300.97;10119678;29;20060;-78
2022/11/06 06:33:51;;;;;;;7.22;2.65;;;;;;;6.62;72.25;100293.25;10098873;29;19949;-76
2022/11/06 06:38:55;;;;;;;4.47;2.67;;;;;;;6.76;71.83;100295.00;10106085;29;20057;-77
2022/11/06 06:43:57;;;;;;;4.65;2.83;;;;;;;6.67;72.44;100302.78;10098525;29;20049;-77
2022/11/06 06:49:01;;;;;;;6.00;2.15;;;;;;;6.85;71.87;100296.19;10113671;29;20128;-75
2022/11/06 06:54:04;;;;;;;8.65;2.33;;;;;;;6.91;71.64;100300.31;10098068;29;20490;-76
2022/11/06 06:59:07;;;;;;;7.00;2.55;;;;;;;7.21;70.60;100310.72;10121219;29;20124;-77
2022/11/06 07:04:11;;;;;;;5.82;2.60;;;;;;;7.42;69.91;100292.38;10116948;29;20040;-78
2022/11/06 07:09:14;;;;;;;4.40;2.38;;;;;;;7.58;69.25;100290.34;10119193;29;20049;-78
2022/11/06 07:14:17;;;;;;;4.15;2.03;;;;;;;7.58;69.31;100300.19;10097723;29;20127;-76
2022/11/06 07:19:21;;;;;;;5.38;2.40;;;;;;;7.76;68.76;100284.66;10121505;29;20128;-78
2022/11/06 07:24:24;;;;;;;4.72;2.75;;;;;;;8.21;67.18;100285.00;10096816;29;20541;-78
2022/11/06 07:29:27;;;;;;;6.82;2.70;;;;;;;8.63;66.04;100281.00;10108293;29;20040;-78
2022/11/06 07:34:31;;;;;;;7.40;2.72;;;;;;;8.68;65.06;100286.03;10118939;29;20495;-77
2022/11/06 07:39:34;;;;;;;6.90;2.72;;;;;;;8.18;66.56;100278.06;10098200;29;20061;-77
2022/11/06 07:44:37;;;;;;;4.47;2.15;;;;;;;7.96;67.68;100284.09;10107528;29;20143;-77
2022/11/06 07:49:41;;;;;;;5.82;2.22;;;;;;;7.92;67.77;100282.59;10128124;29;20071;-76
2022/11/06 07:54:51;;;;;;;7.15;1.98;;;;;;;8.02;67.67;100282.81;10119032;29;20135;-77
2022/11/06 07:59:54;;;;;;;6.60;2.40;;;;;;;8.21;66.57;100276.97;10123323;29;20493;-78
2022/11/06 08:04:58;;;;;;;4.25;1.98;;;;;;;8.28;66.44;100271.06;10131514;29;20048;-76
2022/11/06 08:10:01;;;;;;;3.53;1.95;;;;;;;8.01;67.08;100278.41;10122290;29;20044;-77
2022/11/06 08:15:04;;;;;;;2.35;2.05;;;;;;;8.06;67.03;100273.56;10128640;29;20097;-78
2022/11/06 08:20:10;;;;;;;8.70;3.40;;;;;;;7.78;67.86;100277.38;10102632;29;20080;-77
2022/11/06 08:25:13;;;;;;;4.90;2.47;;;;;;;8.06;67.04;100268.22;10107965;29;20659;-78
2022/11/06 08:30:15;;;;;;;9.43;3.78;;;;;;;8.44;65.73;100276.13;10119656;29;20081;-75
2022/11/06 08:35:20;;;;;;;10.68;4.50;;;;;;;8.39;65.47;100279.16;10121934;29;20124;-78
2022/11/06 08:40:23;;;;;;;7.90;4.93;;;;;;;8.20;66.35;100270.78;10110584;29;20052;-78
2022/11/06 08:45:32;;;;;;;7.30;2.88;;;;;;;7.95;67.13;100285.06;10111609;29;20108;-77
2022/11/06 08:50:39;;;;;;;11.63;2.88;;;;;;;8.52;65.67;100267.56;10107124;29;20148;-77
2022/11/06 08:55:42;;;;;;;5.43;2.25;;;;;;;9.77;62.29;100248.16;10126929;29;20040;-79
2022/11/06 09:00:44;;;;;;;3.13;1.98;;;;;;;10.08;60.27;100241.19;10125953;29;20048;-78
2022/11/06 09:05:49;;;;;;;5.57;2.08;;;;;;;10.19;60.30;100224.22;10118612;29;20053;-78
2022/11/06 09:10:52;;;;;;;5.18;2.00;;;;;;;10.81;58.77;100218.97;10112148;29;20049;-79
2022/11/06 09:16:00;;;;;;;4.70;2.42;;;;;;;10.61;59.40;100222.47;10116589;29;20124;-77
2022/11/06 09:21:05;;;;;;;6.32;2.33;;;;;;;11.16;57.65;100228.59;10126610;29;20060;-78
2022/11/06 09:26:07;;;;;;;4.05;2.42;;;;;;;11.56;56.51;100218.88;10104832;29;20077;-78
2022/11/06 09:31:10;;;;;;;6.18;2.40;;;;;;;11.70;56.11;100210.44;10117501;29;20105;-78
2022/11/06 09:36:14;;;;;;;3.45;2.45;;;;;;;11.64;56.30;100202.91;10118349;29;20076;-78
2022/11/06 09:41:22;;;;;;;6.95;2.90;;;;;;;11.67;55.51;100219.63;10118673;29;20065;-76
2022/11/06 09:46:27;;;;;;;4.63;2.33;;;;;;;11.94;55.15;100215.47;10112375;29;20041;-76
2022/11/06 09:51:39;;;;;;;5.00;2.35;;;;;;;12.35;54.16;100217.16;10113859;29;20084;-77
2022/11/06 09:56:43;;;;;;;3.70;2.45;;;;;;;12.30;53.25;100223.94;10120603;29;20096;-77
2022/11/06 10:01:50;;;;;;;3.53;1.75;;;;;;;12.52;53.08;100212.91;10125161;29;20073;-78
2022/11/06 10:06:54;;;;;;;4.03;3.22;;;;;;;12.85;53.01;100202.69;10115674;29;20104;-78
2022/11/06 10:12:07;;;;;;;6.25;2.00;;;;;;;13.26;51.67;100174.50;10104075;29;20055;-78
2022/11/06 10:17:23;;;;;;;4.45;2.05;;;;;;;13.58;50.05;100178.69;10127256;29;20044;-76
2022/11/06 10:22:37;;;;;;;2.55;1.60;;;;;;;12.97;51.08;100185.38;10134218;29;20045;-76
2022/11/06 10:27:46;;;;;;;13.25;5.45;;;;;;;13.14;51.19;100169.44;10139487;29;20045;-75
2022/11/06 10:33:20;;;;;;;2.70;1.75;;;;;;;14.34;48.76;100150.47;10136065;29;20574;-76
2022/11/06 10:38:27;;;;;;;3.13;1.90;;;;;;;15.18;46.28;100144.56;10110228;29;20080;-78
2022/11/06 10:43:34;;;;;;;5.50;1.60;;;;;;;15.42;46.33;100137.63;10117140;29;20063;-77
2022/11/06 10:48:40;;;;;;;3.78;1.92;;;;;;;14.25;47.09;100111.72;10118955;29;20065;-77
2022/11/06 10:53:55;;;;;;;3.63;1.77;;;;;;;13.09;50.85;100129.41;10116392;29;20045;-78
2022/11/06 10:58:58;;;;;;;2.83;1.60;;;;;;;13.61;50.28;100119.00;10124730;29;20114;-79
2022/11/06 11:04:01;;;;;;;3.08;1.75;;;;;;;15.51;46.12;100111.44;10127038;29;20082;-79
2022/11/06 11:09:31;;;;;;;6.55;1.85;;;;;;;14.14;48.04;100115.50;10139044;29;20036;-77
2022/11/06 11:14:34;;;;;;;4.22;1.70;;;;;;;13.59;49.88;100098.56;10106846;29;20072;-77
2022/11/06 11:19:38;;;;;;;3.30;1.65;;;;;;;12.39;51.89;100100.03;10126844;29;20545;-78
2022/11/06 11:24:59;;;;;;;3.63;1.70;;;;;;;11.46;54.13;100100.47;10121850;29;20040;-75
2022/11/06 11:30:05;;;;;;;3.38;1.55;;;;;;;11.35;54.61;100079.91;10135112;29;20060;-77
2022/11/06 11:35:10;;;;;;;4.03;2.45;;;;;;;11.48;54.74;100071.63;10114388;29;20080;-78
2022/11/06 11:40:35;;;;;;;1.77;1.50;;;;;;;11.57;54.76;100070.78;10108463;29;20478;-79
2022/11/06 11:45:38;;;;;;;5.07;2.35;;;;;;;11.71;54.14;100056.94;10120545;29;20061;-76
2022/11/06 11:50:41;;;;;;;2.75;2.38;;;;;;;11.92;53.95;100050.56;10126700;29;20052;-77
2022/11/06 11:55:48;;;;;;;5.57;2.03;;;;;;;12.11;54.13;100038.97;10122222;29;20085;-78
2022/11/06 12:00:54;;;;;;;3.85;1.80;;;;;;;12.10;54.24;100027.34;10124504;29;20040;-78
2022/11/06 12:06:12;;;;;;;4.65;1.90;;;;;;;11.89;54.19;100021.25;10104137;29;20057;-75
2022/11/06 12:11:22;;;;;;;3.50;1.92;;;;;;;12.11;53.64;100014.72;10106357;29;20053;-80
2022/11/06 12:16:24;;;;;;;2.38;1.90;;;;;;;12.99;52.05;99999.19;10118588;29;20116;-77
2022/11/06 12:21:32;;;;;;;5.93;2.55;;;;;;;14.67;47.84;99991.31;10116750;29;20059;-77
2022/11/06 12:26:41;;;;;;;4.38;2.30;;;;;;;14.54;47.95;99986.34;10132939;29;20567;-79
2022/11/06 12:31:51;;;;;;;4.40;2.00;;;;;;;14.55;48.04;99972.66;10112162;29;20056;-78
2022/11/06 12:37:06;;;;;;;3.63;2.90;;;;;;;12.96;51.40;99965.28;10130809;29;20068;-77
2022/11/06 12:42:12;;;;;;;3.78;2.58;;;;;;;13.58;50.24;99970.88;10133205;29;20811;-78
2022/11/06 12:47:24;;;;;;;4.45;3.08;;;;;;;13.18;51.39;99947.00;10132379;29;20072;-77
2022/11/06 12:52:43;;;;;;;4.78;3.15;;;;;;;12.73;51.99;99932.50;10135832;29;20109;-76
2022/11/06 12:58:02;;;;;;;6.47;2.47;;;;;;;12.33;52.87;99917.47;10127749;29;20053;-79
2022/11/06 13:03:34;;;;;;;3.97;2.88;;;;;;;11.92;53.80;99927.59;10110441;29;20077;-79
2022/11/06 13:08:47;;;;;;;6.30;2.85;;;;;;;11.53;54.76;99925.97;10116691;29;20080;-78
2022/11/06 13:14:02;;;;;;;6.90;2.55;;;;;;;11.37;55.07;99918.44;10124706;29;20402;-78
2022/11/06 13:19:10;;;;;;;7.57;3.25;;;;;;;11.67;54.79;99904.84;10121458;29;20513;-78
2022/11/06 13:24:18;;;;;;;7.20;3.17;;;;;;;11.65;55.10;99890.69;10128878;29;20068;-79
2022/11/06 13:29:24;;;;;;;7.43;3.22;;;;;;;11.20;55.71;99874.28;10122175;29;20526;-78
2022/11/06 13:34:30;;;;;;;5.57;3.05;;;;;;;11.10;56.08;99881.47;10137269;29;20061;-78
2022/11/06 13:39:39;;;;;;;4.90;3.15;;;;;;;12.25;54.55;99852.69;10123364;29;20048;-79
2022/11/06 13:44:44;;;;;;;5.65;3.17;;;;;;;14.00;50.08;99842.47;10140138;29;20048;-78
2022/11/06 13:49:58;;;;;;;8.68;2.72;;;;;;;13.75;49.32;99836.94;10135502;29;20076;-78
2022/11/06 13:55:08;;;;;;;4.38;2.90;;;;;;;12.93;51.34;99833.50;10122625;29;20146;-78
2022/11/06 14:00:19;;;;;;;5.72;3.30;;;;;;;11.93;53.41;99823.53;10126533;29;20092;-77
2022/11/06 14:05:51;;;;;;;9.98;2.97;;;;;;;11.60;54.93;99835.63;10112122;29;20555;-79
2022/11/06 14:10:58;;;;;;;7.18;4.57;;;;;;;11.37;55.55;99833.25;10121065;29;20081;-79
2022/11/06 14:16:24;;;;;;;8.00;4.97;;;;;;;11.26;55.83;99823.47;10104187;29;20115;-76
2022/11/06 14:21:51;;;;;;;5.32;3.30;;;;;;;11.26;55.65;99812.72;10129820;29;20052;-77
2022/11/06 14:26:54;;;;;;;6.13;2.30;;;;;;;11.15;54.74;99822.78;10116637;29;20064;-77
2022/11/06 14:32:01;;;;;;;3.80;2.15;;;;;;;11.12;54.40;99831.97;10123556;29;20076;-77
2022/11/06 14:37:36;;;;;;;6.45;2.30;;;;;;;11.26;53.96;99826.16;10103222;29;20080;-77
2022/11/06 14:42:42;;;;;;;5.70;2.30;;;;;;;10.95;54.02;99816.53;10121992;29;20083;-78
2022/11/06 14:47:53;;;;;;;7.68;2.67;;;;;;;10.89;54.20;99817.06;10101722;29;20549;-76
2022/11/06 14:53:00;;;;;;;4.40;2.17;;;;;;;10.79;53.99;99823.31;10125879;29;20057;-76
2022/11/06 14:58:17;;;;;;;4.60;2.50;;;;;;;10.83;53.87;99830.09;10130105;29;20076;-78
2022/11/06 15:03:29;;;;;;;2.28;1.80;;;;;;;10.82;53.19;99828.38;10109415;29;20093;-78
2022/11/06 15:08:58;;;;;;;4.63;2.23;;;;;;;10.54;53.39;99831.88;10132481;29;20075;-78
2022/11/06 15:14:35;;;;;;;9.48;3.17;;;;;;;10.46;53.55;99824.50;10109189;29;20075;-78
2022/11/06 15:19:42;;;;;;;3.42;2.22;;;;;;;10.47;53.23;99812.78;10123632;29;20563;-78
2022/11/06 15:24:50;;;;;;;4.65;2.20;;;;;;;10.55;52.36;99795.97;10127259;29;20044;-78
2022/11/06 15:29:57;;;;;;;2.85;1.80;;;;;;;10.21;52.88;99784.75;10137778;29;20056;-78
2022/11/06 15:35:06;;;;;;;4.38;2.78;;;;;;;10.26;53.05;99794.09;10134032;29;20077;-75
2022/11/06 15:40:23;;;;;;;8.43;2.17;;;;;;;10.23;52.41;99761.28;10111850;29;20092;-76
2022/11/06 15:45:28;;;;;;;2.67;1.65;;;;;;;10.25;52.51;99770.03;10130619;29;20104;-78
2022/11/06 15:50:34;;;;;;;1.63;1.52;;;;;;;10.07;52.83;99761.81;10120607;29;20059;-78
2022/11/06 15:55:40;;;;;;;5.55;1.60;;;;;;;10.06;52.99;99744.84;10101005;29;20069;-78
2022/11/06 16:00:43;;;;;;;4.10;2.17;;;;;;;9.95;53.47;99755.69;10111254;29;20053;-78
2022/11/06 16:05:48;;;;;;;4.88;2.20;;;;;;;10.08;53.24;99752.78;10111594;29;20059;-76
2022/11/06 16:10:52;;;;;;;3.40;1.77;;;;;;;10.03;53.31;99741.59;10124774;29;20057;-77
2022/11/06 16:15:59;;;;;;;2.80;2.20;;;;;;;10.00;53.20;99721.25;10120613;29;20119;-78
2022/11/06 16:21:13;;;;;;;3.10;1.98;;;;;;;9.97;52.52;99716.16;10118111;29;20045;-78
2022/11/06 16:26:21;;;;;;;3.70;1.83;;;;;;;9.90;51.85;99717.69;10126462;29;20105;-77
2022/11/06 16:31:26;;;;;;;2.35;1.42;;;;;;;9.94;51.66;99708.38;10106254;29;20444;-78
2022/11/06 16:36:48;;;;;;;1.92;1.10;;;;;;;9.58;52.09;99715.16;10116512;29;20079;-77
2022/11/06 16:42:02;;;;;;;5.78;1.85;;;;;;;10.01;51.49;99697.94;10099223;29;20503;-78
2022/11/06 16:47:17;;;;;;;4.93;1.63;;;;;;;9.55;52.35;99736.88;10113912;29;20045;-78
2022/11/06 16:52:25;;;;;;;2.10;1.90;;;;;;;9.79;51.80;99737.41;10118786;29;20064;-77
2022/11/06 16:57:32;;;;;;;3.97;1.70;;;;;;;9.82;51.71;99737.13;10112325;29;20056;-78
2022/11/06 17:02:37;;;;;;;0.95;0.93;;;;;;;9.73;51.61;99736.06;10112862;29;20057;-78
2022/11/06 17:07:42;;;;;;;2.22;1.75;;;;;;;9.68;52.03;99729.41;10117436;29;20139;-76
2022/11/06 17:12:45;;;;;;;4.47;1.80;;;;;;;9.85;52.02;99714.56;10106018;29;20587;-77
2022/11/06 17:17:49;;;;;;;;;;;;;;;9.77;52.07;99720.59;10116608;29;20537;-76
2022/11/06 17:22:53;;;;;;;3.55;1.90;;;;;;;9.89;52.25;99729.41;10129221;29;19931;-76
2022/11/06 17:27:56;;;;;;;3.83;1.70;;;;;;;9.64;52.62;99730.69;10127361;29;20052;-75
2022/11/06 17:32:59;;;;;;;2.88;1.85;;;;;;;9.68;52.57;99732.97;10114218;29;20088;-78
2022/11/06 17:38:03;;;;;;;;;;;;;;;9.50;53.23;99727.38;10111186;29;20223;-78
2022/11/06 17:43:09;;;;;;;2.00;1.42;;;;;;;9.51;52.99;99718.34;10129411;29;20015;-77
2022/11/06 17:48:12;;;;;;;2.10;1.65;;;;;;;9.56;52.95;99720.63;10128786;29;20160;-77
2022/11/06 17:53:17;;;;;;;;;;;;;;;9.53;53.64;99703.97;10122603;29;20119;-75
2022/11/06 17:58:20;;;;;;;14.38;2.83;;;;;;;9.42;58.20;99721.81;10118038;29;19928;-77
2022/11/06 18:03:22;;;;;;;;;;;;;;;9.09;60.25;99714.88;10125155;29;20124;-77
2022/11/06 18:08:26;;;;;;;5.30;2.38;;;;;;;8.50;64.07;99716.25;10119180;29;19923;-76
2022/11/06 18:13:30;;;;;;;3.05;2.20;;;;;;;8.26;66.71;99703.03;10119038;29;20092;-77
2022/11/06 18:18:33;;;;;;;4.93;2.70;;;;;;;8.22;71.40;99653.41;10101790;29;20092;-77
2022/11/06 18:23:38;;;;;;;5.50;3.05;;;;;;;7.77;72.39;99625.97;10107303;29;20104;-76
2022/11/06 18:28:41;;;;;;;4.63;3.35;;;;;;;7.72;76.55;99635.19;10118577;29;20068;-77
2022/11/06 18:33:44;;;;;;;6.80;3.58;;;;;;;7.71;76.88;99648.69;10105637;29;20076;-77
2022/11/06 18:38:48;;;;;;;5.05;4.03;;;;;;;7.62;77.24;99633.38;10112190;29;20080;-78
2022/11/06 18:43:55;;;;;;;4.20;3.58;;;;;;;7.45;77.41;99613.38;10120440;29;20072;-77
2022/11/06 18:48:59;;;;;;;4.05;2.92;;;;;;;7.49;77.95;99593.47;10103782;29;20135;-77
2022/11/06 18:54:05;;;;;;;5.80;2.70;;;;;;;7.58;76.78;99622.09;10110378;29;20059;-77
2022/11/06 18:59:12;;;;;;;6.45;3.53;;;;;;;7.59;79.48;99628.28;10118841;29;20041;-76
2022/11/06 19:04:15;;;;;;;5.20;3.78;;;;;;;7.03;78.52;99599.78;10112754;29;20119;-77
2022/11/06 19:09:19;;;;;;;6.13;3.38;;;;;;;7.15;78.20;99579.25;10112409;29;20131;-76
2022/11/06 19:14:22;;;;;;;4.47;3.47;;;;;;;7.35;79.02;99578.53;10110679;29;20057;-77
2022/11/06 19:19:25;;;;;;;4.47;3.38;;;;;;;7.47;78.87;99587.38;10116001;29;20148;-76
2022/11/06 19:24:29;;;;;;;5.97;4.07;;;;;;;7.62;79.47;99580.78;10123903;29;20076;-74
2022/11/06 19:29:32;;;;;;;4.47;3.38;;;;;;;7.63;78.82;99581.66;10122637;29;20525;-75
2022/11/06 19:34:35;;;;;;;6.72;4.60;;;;;;;7.67;78.52;99591.94;10113040;29;20055;-77
2022/11/06 19:39:42;;;;;;;4.20;3.60;;;;;;;7.64;77.33;99576.16;10124716;29;20135;-76
2022/11/06 19:44:45;;;;;;;5.78;3.50;;;;;;;7.70;76.60;99591.69;10095922;29;20139;-77
2022/11/06 19:49:48;;;;;;;4.53;3.42;;;;;;;7.70;76.14;99586.34;10105358;29;20104;-76
2022/11/06 19:54:52;;;;;;;6.38;4.25;;;;;;;7.85;75.55;99584.25;10115516;29;20053;-77
2022/11/06 20:00:16;;;;;;;6.63;4.18;;;;;;;7.98;75.29;99588.56;10118320;29;20486;-77
2022/11/06 20:05:19;;;;;;;5.45;3.53;;;;;;;7.94;74.27;99586.16;10115775;29;20495;-75
2022/11/06 20:10:23;;;;;;;5.47;3.45;;;;;;;8.06;73.09;99596.81;10114582;29;20128;-77
2022/11/06 20:15:26;;;;;;;5.05;3.50;;;;;;;8.16;73.72;99597.75;10115593;29;20077;-77
2022/11/06 20:20:29;;;;;;;5.00;3.22;;;;;;;8.05;72.57;99595.13;10111294;29;20049;-76
2022/11/06 20:25:39;;;;;;;5.40;3.60;;;;;;;8.24;72.06;99608.66;10119561;29;20068;-77
2022/11/06 20:30:42;;;;;;;4.50;3.45;;;;;;;8.30;71.51;99610.81;10132862;29;20072;-76
2022/11/06 20:35:45;;;;;;;;;;;;;;;8.36;71.17;99609.44;10095662;29;20049;-77
2022/11/06 20:40:49;;;;;;;3.20;2.85;;;;;;;8.35;70.40;99615.78;10106528;29;19923;-76
2022/11/06 20:45:52;;;;;;;5.07;3.50;;;;;;;8.49;70.20;99620.84;10118785;29;20132;-77
2022/11/06 20:50:59;;;;;;;4.15;2.78;;;;;;;8.46;69.35;99617.59;10125418;29;20048;-76
2022/11/06 20:56:05;;;;;;;3.17;2.80;;;;;;;8.60;69.16;99619.94;10107432;29;20080;-77
2022/11/06 21:01:10;;;;;;;4.10;2.90;;;;;;;8.64;68.64;99631.25;10115002;29;20136;-76
2022/11/06 21:06:13;;;;;;;4.60;2.70;;;;;;;8.56;66.22;99626.56;10122602;29;20055;-78
2022/11/06 21:11:20;;;;;;;3.03;2.72;;;;;;;8.73;64.85;99619.78;10119245;29;20037;-78
2022/11/06 21:16:24;;;;;;;3.10;2.28;;;;;;;8.85;64.04;99618.69;10101303;29;20781;-78
2022/11/06 21:21:29;;;;;;;2.65;1.95;;;;;;;8.81;62.27;99617.28;10112893;29;20415;-76
2022/11/06 21:26:35;;;;;;;1.98;1.77;;;;;;;8.80;61.55;99626.28;10107115;29;20068;-77
2022/11/06 21:31:38;;;;;;;3.25;2.20;;;;;;;9.05;60.72;99630.38;10102897;29;20048;-76
2022/11/06 21:36:50;;;;;;;2.27;2.00;;;;;;;8.86;60.30;99631.13;10117847;29;20048;-75
2022/11/06 21:41:54;;;;;;;1.73;1.27;;;;;;;9.13;60.18;99632.38;10124736;29;20077;-77
2022/11/06 21:46:57;;;;;;;1.70;1.50;;;;;;;9.04;59.93;99628.69;10071701;29;1081288;-77
2022/11/06 21:55:57;;;;;;;3.42;1.98;;;;;;;8.81;60.08;99631.50;10109855;29;20041;-77
2022/11/06 21:57:32;;;;;;;3.72;1.83;;;;;;;9.13;59.63;99637.75;10115091;29;20048;-76
2022/11/06 22:02:34;;;;;;;2.60;1.70;;;;;;;9.22;59.96;99636.97;10120805;29;20081;-76
2022/11/06 22:07:37;;;;;;;3.03;1.63;;;;;;;9.26;59.91;99638.38;10131020;29;20136;-77
2022/11/06 22:12:41;;;;;;;;;;;;;;;9.10;60.73;99651.41;10120635;29;20459;-77
2022/11/06 22:17:45;;;;;;;2.72;1.90;;;;;;;9.41;61.27;99655.81;10117426;29;20414;-77
2022/11/06 22:22:47;;;;;;;2.35;2.00;;;;;;;9.26;62.25;99651.78;10105248;29;20135;-77
2022/11/06 22:27:52;;;;;;;1.77;1.65;;;;;;;9.05;62.58;99646.44;10108873;29;20131;-77
2022/11/06 22:32:54;;;;;;;5.28;2.25;;;;;;;9.11;62.90;99662.00;10105641;29;20666;-77
2022/11/06 22:37:57;;;;;;;;;;;;;;;9.01;63.36;99659.25;10111782;29;20084;-77
2022/11/06 22:43:01;;;;;;;2.95;1.88;;;;;;;9.08;64.04;99650.69;10118523;29;20022;-77
2022/11/06 22:48:05;;;;;;;5.40;2.00;;;;;;;9.35;62.98;99653.69;10117153;29;20045;-77
2022/11/06 22:53:07;;;;;;;3.03;2.15;;;;;;;9.17;63.88;99674.88;10121885;29;20079;-76
2022/11/06 22:58:18;;;;;;;2.30;1.55;;;;;;;9.08;64.53;99667.63;10123785;29;20080;-77
2022/11/06 23:03:21;;;;;;;3.50;1.92;;;;;;;9.19;64.50;99659.50;10121395;29;20140;-77
2022/11/06 23:08:27;;;;;;;4.07;1.88;;;;;;;9.33;64.38;99665.50;10113080;29;20395;-77
2022/11/06 23:13:31;;;;;;;2.08;1.90;;;;;;;9.57;63.83;99670.53;10116702;29;20060;-76
2022/11/06 23:18:34;;;;;;;7.53;2.78;;;;;;;9.44;64.45;99671.63;10123242;29;20041;-77
2022/11/06 23:23:37;;;;;;;3.03;1.77;;;;;;;9.27;65.42;99682.97;10132262;29;20402;-76
2022/11/06 23:28:41;;;;;;;;;;;;;;;9.36;65.58;99692.03;10124971;29;20137;-77
2022/11/06 23:33:44;;;;;;;2.60;1.65;;;;;;;9.52;65.47;99687.03;10130013;29;19977;-76
2022/11/06 23:38:47;;;;;;;3.70;1.48;;;;;;;9.57;65.55;99690.16;10128049;29;20131;-77
2022/11/06 23:43:51;;;;;;;7.15;1.98;;;;;;;9.59;65.35;99698.06;10116070;29;20047;-78
2022/11/06 23:48:55;;;;;;;5.10;2.00;;;;;;;9.44;66.91;99695.75;10128602;29;20065;-77
2022/11/06 23:53:58;;;;;;;3.35;2.47;;;;;;;9.60;66.70;99694.38;10134499;29;20120;-78
2022/11/06 23:59:01;;;;;;;;;;;;;;;9.49;67.08;99690.00;10134697;29;20068;-75
